sensor_id;sensor_type;location;lat;lon;timestamp;P1;durP1;ratioP1;P2;durP2;ratioP2
21266;SDS011;10791;53.108;18.326;2024-02-26T00:01:24;37.77;;;13.70;;
21266;SDS011;10791;53.108;18.326;2024-02-26T00:06:32;42.83;;;14.87;;
21266;SDS011;10791;53.108;18.326;2024-02-26T00:11:38;37.20;;;13.27;;
21266;SDS011;10791;53.108;18.326;2024-02-26T00:16:42;37.73;;;13.77;;
21266;SDS011;10791;53.108;18.326;2024-02-26T00:21:45;30.33;;;11.57;;
21266;SDS011;10791;53.108;18.326;2024-02-26T00:26:48;37.37;;;12.87;;
21266;SDS011;10791;53.108;18.326;2024-02-26T00:31:55;30.20;;;11.90;;
21266;SDS011;10791;53.108;18.326;2024-02-26T00:36:59;38.60;;;12.37;;
21266;SDS011;10791;53.108;18.326;2024-02-26T00:42:02;33.97;;;11.67;;
21266;SDS011;10791;53.108;18.326;2024-02-26T00:47:06;24.90;;;11.73;;
21266;SDS011;10791;53.108;18.326;2024-02-26T00:52:09;28.03;;;11.83;;
21266;SDS011;10791;53.108;18.326;2024-02-26T00:57:12;36.30;;;11.47;;
21266;SDS011;10791;53.108;18.326;2024-02-26T01:02:15;27.13;;;10.73;;
21266;SDS011;10791;53.108;18.326;2024-02-26T01:07:18;31.97;;;12.00;;
21266;SDS011;10791;53.108;18.326;2024-02-26T01:12:22;30.43;;;10.93;;
21266;SDS011;10791;53.108;18.326;2024-02-26T01:17:25;29.53;;;12.37;;
21266;SDS011;10791;53.108;18.326;2024-02-26T01:22:28;23.07;;;13.47;;
21266;SDS011;10791;53.108;18.326;2024-02-26T01:27:31;30.53;;;13.70;;
21266;SDS011;10791;53.108;18.326;2024-02-26T01:32:35;40.87;;;15.50;;
21266;SDS011;10791;53.108;18.326;2024-02-26T01:37:38;38.73;;;12.40;;
21266;SDS011;10791;53.108;18.326;2024-02-26T01:42:42;32.10;;;12.83;;
21266;SDS011;10791;53.108;18.326;2024-02-26T01:47:45;31.00;;;14.10;;
21266;SDS011;10791;53.108;18.326;2024-02-26T01:52:49;31.20;;;12.60;;
21266;SDS011;10791;53.108;18.326;2024-02-26T01:57:53;32.17;;;11.97;;
21266;SDS011;10791;53.108;18.326;2024-02-26T02:02:56;29.93;;;12.47;;
21266;SDS011;10791;53.108;18.326;2024-02-26T02:08:00;28.30;;;12.20;;
21266;SDS011;10791;53.108;18.326;2024-02-26T02:13:03;22.10;;;11.63;;
21266;SDS011;10791;53.108;18.326;2024-02-26T02:18:06;24.03;;;9.80;;
21266;SDS011;10791;53.108;18.326;2024-02-26T02:23:09;22.47;;;11.20;;
21266;SDS011;10791;53.108;18.326;2024-02-26T02:28:13;17.33;;;10.20;;
21266;SDS011;10791;53.108;18.326;2024-02-26T02:33:16;31.43;;;12.77;;
21266;SDS011;10791;53.108;18.326;2024-02-26T02:38:20;23.17;;;10.90;;
21266;SDS011;10791;53.108;18.326;2024-02-26T02:43:23;19.97;;;9.97;;
21266;SDS011;10791;53.108;18.326;2024-02-26T02:48:26;23.83;;;9.60;;
21266;SDS011;10791;53.108;18.326;2024-02-26T02:53:30;22.33;;;10.17;;
21266;SDS011;10791;53.108;18.326;2024-02-26T02:58:33;15.97;;;9.13;;
21266;SDS011;10791;53.108;18.326;2024-02-26T03:03:37;22.47;;;8.80;;
21266;SDS011;10791;53.108;18.326;2024-02-26T03:08:40;12.50;;;7.40;;
21266;SDS011;10791;53.108;18.326;2024-02-26T03:13:44;16.17;;;7.80;;
21266;SDS011;10791;53.108;18.326;2024-02-26T03:18:48;18.40;;;9.57;;
21266;SDS011;10791;53.108;18.326;2024-02-26T03:23:52;16.60;;;9.67;;
21266;SDS011;10791;53.108;18.326;2024-02-26T03:28:57;21.60;;;10.20;;
21266;SDS011;10791;53.108;18.326;2024-02-26T03:34:01;32.20;;;11.00;;
21266;SDS011;10791;53.108;18.326;2024-02-26T03:39:04;17.27;;;8.90;;
21266;SDS011;10791;53.108;18.326;2024-02-26T03:44:10;26.50;;;9.40;;
21266;SDS011;10791;53.108;18.326;2024-02-26T03:49:13;15.23;;;6.93;;
21266;SDS011;10791;53.108;18.326;2024-02-26T03:54:16;21.83;;;9.13;;
21266;SDS011;10791;53.108;18.326;2024-02-26T03:59:19;18.77;;;8.33;;
21266;SDS011;10791;53.108;18.326;2024-02-26T04:04:24;13.73;;;6.87;;
21266;SDS011;10791;53.108;18.326;2024-02-26T04:09:27;16.50;;;8.57;;
21266;SDS011;10791;53.108;18.326;2024-02-26T04:14:30;16.97;;;7.70;;
21266;SDS011;10791;53.108;18.326;2024-02-26T04:19:33;14.13;;;6.43;;
21266;SDS011;10791;53.108;18.326;2024-02-26T04:24:37;12.10;;;6.50;;
21266;SDS011;10791;53.108;18.326;2024-02-26T04:29:39;16.43;;;7.37;;
21266;SDS011;10791;53.108;18.326;2024-02-26T04:34:42;14.13;;;6.50;;
21266;SDS011;10791;53.108;18.326;2024-02-26T04:39:46;15.30;;;8.13;;
21266;SDS011;10791;53.108;18.326;2024-02-26T04:44:52;14.73;;;8.17;;
21266;SDS011;10791;53.108;18.326;2024-02-26T04:49:56;25.57;;;11.50;;
21266;SDS011;10791;53.108;18.326;2024-02-26T04:54:59;23.10;;;10.87;;
21266;SDS011;10791;53.108;18.326;2024-02-26T05:00:03;20.83;;;10.57;;
21266;SDS011;10791;53.108;18.326;2024-02-26T05:05:07;25.10;;;11.57;;
21266;SDS011;10791;53.108;18.326;2024-02-26T05:10:15;21.23;;;9.50;;
21266;SDS011;10791;53.108;18.326;2024-02-26T05:15:18;11.13;;;7.07;;
21266;SDS011;10791;53.108;18.326;2024-02-26T05:20:22;16.63;;;7.90;;
21266;SDS011;10791;53.108;18.326;2024-02-26T05:25:26;16.43;;;8.60;;
21266;SDS011;10791;53.108;18.326;2024-02-26T05:30:29;14.93;;;7.60;;
21266;SDS011;10791;53.108;18.326;2024-02-26T05:35:33;19.53;;;9.47;;
21266;SDS011;10791;53.108;18.326;2024-02-26T05:40:36;11.77;;;6.67;;
21266;SDS011;10791;53.108;18.326;2024-02-26T05:45:39;16.10;;;8.53;;
21266;SDS011;10791;53.108;18.326;2024-02-26T05:50:43;17.20;;;8.90;;
21266;SDS011;10791;53.108;18.326;2024-02-26T05:55:46;15.30;;;8.03;;
21266;SDS011;10791;53.108;18.326;2024-02-26T06:00:50;20.20;;;8.67;;
21266;SDS011;10791;53.108;18.326;2024-02-26T06:05:53;18.03;;;8.00;;
21266;SDS011;10791;53.108;18.326;2024-02-26T06:10:57;21.20;;;10.67;;
21266;SDS011;10791;53.108;18.326;2024-02-26T06:16:00;40.07;;;10.23;;
21266;SDS011;10791;53.108;18.326;2024-02-26T06:21:04;24.37;;;9.20;;
21266;SDS011;10791;53.108;18.326;2024-02-26T06:26:11;17.80;;;8.57;;
21266;SDS011;10791;53.108;18.326;2024-02-26T06:31:14;16.47;;;7.73;;
21266;SDS011;10791;53.108;18.326;2024-02-26T06:36:18;23.17;;;10.30;;
21266;SDS011;10791;53.108;18.326;2024-02-26T06:41:22;23.40;;;9.33;;
21266;SDS011;10791;53.108;18.326;2024-02-26T06:46:30;17.73;;;7.77;;
21266;SDS011;10791;53.108;18.326;2024-02-26T06:51:33;21.43;;;9.27;;
21266;SDS011;10791;53.108;18.326;2024-02-26T06:56:36;20.40;;;8.50;;
21266;SDS011;10791;53.108;18.326;2024-02-26T07:01:40;20.43;;;8.90;;
21266;SDS011;10791;53.108;18.326;2024-02-26T07:06:44;20.17;;;10.17;;
21266;SDS011;10791;53.108;18.326;2024-02-26T07:11:49;18.70;;;8.93;;
21266;SDS011;10791;53.108;18.326;2024-02-26T07:16:52;25.30;;;9.93;;
21266;SDS011;10791;53.108;18.326;2024-02-26T07:21:56;25.10;;;10.60;;
21266;SDS011;10791;53.108;18.326;2024-02-26T07:27:02;24.70;;;11.83;;
21266;SDS011;10791;53.108;18.326;2024-02-26T07:35:47;19.40;;;10.20;;
21266;SDS011;10791;53.108;18.326;2024-02-26T07:40:51;24.97;;;12.37;;
21266;SDS011;10791;53.108;18.326;2024-02-26T07:46:04;24.17;;;11.93;;
21266;SDS011;10791;53.108;18.326;2024-02-26T07:51:07;22.60;;;10.87;;
21266;SDS011;10791;53.108;18.326;2024-02-26T07:56:10;19.87;;;10.63;;
21266;SDS011;10791;53.108;18.326;2024-02-26T08:01:14;26.03;;;12.83;;
21266;SDS011;10791;53.108;18.326;2024-02-26T08:06:18;20.53;;;10.63;;
21266;SDS011;10791;53.108;18.326;2024-02-26T08:11:21;20.20;;;9.90;;
21266;SDS011;10791;53.108;18.326;2024-02-26T08:16:24;28.20;;;11.77;;
21266;SDS011;10791;53.108;18.326;2024-02-26T08:21:29;23.17;;;12.00;;
21266;SDS011;10791;53.108;18.326;2024-02-26T08:26:32;32.87;;;14.70;;
21266;SDS011;10791;53.108;18.326;2024-02-26T08:31:35;30.87;;;14.80;;
21266;SDS011;10791;53.108;18.326;2024-02-26T08:36:40;29.10;;;14.23;;
21266;SDS011;10791;53.108;18.326;2024-02-26T08:41:44;25.40;;;13.23;;
21266;SDS011;10791;53.108;18.326;2024-02-26T08:46:48;25.27;;;14.17;;
21266;SDS011;10791;53.108;18.326;2024-02-26T08:51:51;38.50;;;15.33;;
21266;SDS011;10791;53.108;18.326;2024-02-26T08:56:54;35.30;;;14.80;;
21266;SDS011;10791;53.108;18.326;2024-02-26T09:01:57;28.87;;;12.37;;
21266;SDS011;10791;53.108;18.326;2024-02-26T09:07:01;24.70;;;15.03;;
21266;SDS011;10791;53.108;18.326;2024-02-26T09:12:04;31.00;;;13.70;;
21266;SDS011;10791;53.108;18.326;2024-02-26T09:17:08;31.10;;;13.07;;
21266;SDS011;10791;53.108;18.326;2024-02-26T09:22:11;23.80;;;12.53;;
21266;SDS011;10791;53.108;18.326;2024-02-26T09:27:18;26.60;;;13.10;;
21266;SDS011;10791;53.108;18.326;2024-02-26T09:32:22;26.20;;;13.27;;
21266;SDS011;10791;53.108;18.326;2024-02-26T09:37:27;34.43;;;15.80;;
21266;SDS011;10791;53.108;18.326;2024-02-26T09:42:30;30.60;;;14.80;;
21266;SDS011;10791;53.108;18.326;2024-02-26T09:47:35;27.33;;;14.60;;
21266;SDS011;10791;53.108;18.326;2024-02-26T09:52:41;25.93;;;15.73;;
21266;SDS011;10791;53.108;18.326;2024-02-26T09:57:45;28.70;;;15.13;;
21266;SDS011;10791;53.108;18.326;2024-02-26T10:02:49;33.03;;;16.10;;
21266;SDS011;10791;53.108;18.326;2024-02-26T10:07:54;32.17;;;15.33;;
21266;SDS011;10791;53.108;18.326;2024-02-26T10:13:00;34.07;;;14.93;;
21266;SDS011;10791;53.108;18.326;2024-02-26T10:18:04;22.87;;;14.47;;
21266;SDS011;10791;53.108;18.326;2024-02-26T10:23:09;25.13;;;14.73;;
21266;SDS011;10791;53.108;18.326;2024-02-26T10:28:13;37.20;;;16.33;;
21266;SDS011;10791;53.108;18.326;2024-02-26T10:33:17;31.33;;;16.93;;
21266;SDS011;10791;53.108;18.326;2024-02-26T10:38:21;31.40;;;16.57;;
21266;SDS011;10791;53.108;18.326;2024-02-26T10:43:26;30.53;;;16.27;;
21266;SDS011;10791;53.108;18.326;2024-02-26T10:48:30;31.53;;;16.43;;
21266;SDS011;10791;53.108;18.326;2024-02-26T10:53:33;35.47;;;16.80;;
21266;SDS011;10791;53.108;18.326;2024-02-26T10:58:39;42.23;;;19.50;;
21266;SDS011;10791;53.108;18.326;2024-02-26T11:03:44;30.93;;;15.60;;
21266;SDS011;10791;53.108;18.326;2024-02-26T11:08:50;31.37;;;16.27;;
21266;SDS011;10791;53.108;18.326;2024-02-26T11:13:54;35.60;;;19.50;;
21266;SDS011;10791;53.108;18.326;2024-02-26T11:18:58;28.93;;;16.13;;
21266;SDS011;10791;53.108;18.326;2024-02-26T11:24:04;28.60;;;16.37;;
21266;SDS011;10791;53.108;18.326;2024-02-26T11:29:11;35.17;;;17.77;;
21266;SDS011;10791;53.108;18.326;2024-02-26T11:34:18;36.67;;;19.13;;
21266;SDS011;10791;53.108;18.326;2024-02-26T11:39:22;28.20;;;16.43;;
21266;SDS011;10791;53.108;18.326;2024-02-26T11:44:30;39.23;;;18.50;;
21266;SDS011;10791;53.108;18.326;2024-02-26T11:49:33;29.40;;;15.43;;
21266;SDS011;10791;53.108;18.326;2024-02-26T11:54:53;33.73;;;16.80;;
21266;SDS011;10791;53.108;18.326;2024-02-26T12:00:14;26.47;;;14.47;;
21266;SDS011;10791;53.108;18.326;2024-02-26T12:05:26;24.13;;;14.97;;
21266;SDS011;10791;53.108;18.326;2024-02-26T12:10:33;28.73;;;15.03;;
21266;SDS011;10791;53.108;18.326;2024-02-26T12:15:42;18.13;;;11.20;;
21266;SDS011;10791;53.108;18.326;2024-02-26T12:21:04;28.50;;;14.67;;
21266;SDS011;10791;53.108;18.326;2024-02-26T12:26:07;18.17;;;11.73;;
21266;SDS011;10791;53.108;18.326;2024-02-26T12:31:12;16.97;;;8.87;;
21266;SDS011;10791;53.108;18.326;2024-02-26T12:36:16;14.80;;;8.13;;
21266;SDS011;10791;53.108;18.326;2024-02-26T12:41:20;15.07;;;7.77;;
21266;SDS011;10791;53.108;18.326;2024-02-26T12:46:25;13.33;;;7.10;;
21266;SDS011;10791;53.108;18.326;2024-02-26T12:51:28;15.80;;;7.17;;
21266;SDS011;10791;53.108;18.326;2024-02-26T12:56:32;13.83;;;7.13;;
21266;SDS011;10791;53.108;18.326;2024-02-26T13:01:35;22.57;;;10.90;;
21266;SDS011;10791;53.108;18.326;2024-02-26T13:06:39;22.00;;;10.43;;
21266;SDS011;10791;53.108;18.326;2024-02-26T13:11:42;14.53;;;8.73;;
21266;SDS011;10791;53.108;18.326;2024-02-26T13:16:56;16.03;;;7.77;;
21266;SDS011;10791;53.108;18.326;2024-02-26T13:22:04;12.30;;;7.03;;
21266;SDS011;10791;53.108;18.326;2024-02-26T13:27:10;11.50;;;6.93;;
21266;SDS011;10791;53.108;18.326;2024-02-26T13:32:16;12.50;;;7.87;;
21266;SDS011;10791;53.108;18.326;2024-02-26T13:37:19;9.60;;;6.00;;
21266;SDS011;10791;53.108;18.326;2024-02-26T13:42:22;14.07;;;6.90;;
21266;SDS011;10791;53.108;18.326;2024-02-26T13:47:25;11.27;;;6.73;;
21266;SDS011;10791;53.108;18.326;2024-02-26T13:52:28;11.43;;;6.63;;
21266;SDS011;10791;53.108;18.326;2024-02-26T13:57:34;13.87;;;7.47;;
21266;SDS011;10791;53.108;18.326;2024-02-26T14:02:37;9.47;;;5.70;;
21266;SDS011;10791;53.108;18.326;2024-02-26T14:07:41;12.03;;;6.43;;
21266;SDS011;10791;53.108;18.326;2024-02-26T14:12:45;12.83;;;7.33;;
21266;SDS011;10791;53.108;18.326;2024-02-26T14:17:48;12.47;;;7.30;;
21266;SDS011;10791;53.108;18.326;2024-02-26T14:22:57;16.67;;;8.37;;
21266;SDS011;10791;53.108;18.326;2024-02-26T14:28:00;14.90;;;8.33;;
21266;SDS011;10791;53.108;18.326;2024-02-26T14:33:04;18.07;;;8.80;;
21266;SDS011;10791;53.108;18.326;2024-02-26T14:38:07;12.70;;;6.93;;
21266;SDS011;10791;53.108;18.326;2024-02-26T14:43:11;12.33;;;7.23;;
21266;SDS011;10791;53.108;18.326;2024-02-26T14:48:14;14.17;;;6.70;;
21266;SDS011;10791;53.108;18.326;2024-02-26T14:53:18;11.97;;;7.60;;
21266;SDS011;10791;53.108;18.326;2024-02-26T14:58:21;19.37;;;9.80;;
21266;SDS011;10791;53.108;18.326;2024-02-26T15:03:25;13.60;;;7.17;;
21266;SDS011;10791;53.108;18.326;2024-02-26T15:08:28;24.27;;;11.30;;
21266;SDS011;10791;53.108;18.326;2024-02-26T15:13:31;13.97;;;7.87;;
21266;SDS011;10791;53.108;18.326;2024-02-26T15:18:37;13.50;;;7.97;;
21266;SDS011;10791;53.108;18.326;2024-02-26T15:23:43;22.50;;;8.77;;
21266;SDS011;10791;53.108;18.326;2024-02-26T15:29:06;15.43;;;7.93;;
21266;SDS011;10791;53.108;18.326;2024-02-26T15:34:11;16.50;;;8.23;;
21266;SDS011;10791;53.108;18.326;2024-02-26T15:39:14;19.50;;;10.73;;
21266;SDS011;10791;53.108;18.326;2024-02-26T15:44:17;28.13;;;12.77;;
21266;SDS011;10791;53.108;18.326;2024-02-26T15:49:20;25.80;;;12.30;;
21266;SDS011;10791;53.108;18.326;2024-02-26T15:54:24;24.03;;;11.40;;
21266;SDS011;10791;53.108;18.326;2024-02-26T15:59:27;19.00;;;11.07;;
21266;SDS011;10791;53.108;18.326;2024-02-26T16:04:31;21.33;;;11.13;;
21266;SDS011;10791;53.108;18.326;2024-02-26T16:09:35;19.77;;;10.00;;
21266;SDS011;10791;53.108;18.326;2024-02-26T16:14:50;20.47;;;10.33;;
21266;SDS011;10791;53.108;18.326;2024-02-26T16:19:54;22.20;;;11.53;;
21266;SDS011;10791;53.108;18.326;2024-02-26T16:24:58;28.60;;;14.73;;
21266;SDS011;10791;53.108;18.326;2024-02-26T16:30:03;28.70;;;14.37;;
21266;SDS011;10791;53.108;18.326;2024-02-26T16:35:08;24.60;;;12.77;;
21266;SDS011;10791;53.108;18.326;2024-02-26T16:40:13;24.37;;;12.00;;
21266;SDS011;10791;53.108;18.326;2024-02-26T16:45:19;26.83;;;13.67;;
21266;SDS011;10791;53.108;18.326;2024-02-26T16:50:24;25.57;;;11.50;;
21266;SDS011;10791;53.108;18.326;2024-02-26T16:55:29;26.70;;;11.83;;
21266;SDS011;10791;53.108;18.326;2024-02-26T17:00:32;19.13;;;11.43;;
21266;SDS011;10791;53.108;18.326;2024-02-26T17:05:35;24.53;;;13.33;;
21266;SDS011;10791;53.108;18.326;2024-02-26T17:10:38;25.70;;;13.57;;
21266;SDS011;10791;53.108;18.326;2024-02-26T17:15:42;30.03;;;13.90;;
21266;SDS011;10791;53.108;18.326;2024-02-26T17:20:45;28.03;;;14.30;;
21266;SDS011;10791;53.108;18.326;2024-02-26T17:25:48;31.77;;;15.17;;
21266;SDS011;10791;53.108;18.326;2024-02-26T17:30:51;34.20;;;16.57;;
21266;SDS011;10791;53.108;18.326;2024-02-26T17:35:55;22.80;;;13.27;;
21266;SDS011;10791;53.108;18.326;2024-02-26T17:40:58;25.57;;;15.50;;
21266;SDS011;10791;53.108;18.326;2024-02-26T17:46:01;30.70;;;15.37;;
21266;SDS011;10791;53.108;18.326;2024-02-26T17:51:04;29.87;;;15.80;;
21266;SDS011;10791;53.108;18.326;2024-02-26T17:56:09;39.83;;;16.50;;
21266;SDS011;10791;53.108;18.326;2024-02-26T18:01:12;35.60;;;19.20;;
21266;SDS011;10791;53.108;18.326;2024-02-26T18:06:15;43.30;;;19.07;;
21266;SDS011;10791;53.108;18.326;2024-02-26T18:11:20;33.07;;;16.80;;
21266;SDS011;10791;53.108;18.326;2024-02-26T18:16:23;35.37;;;17.77;;
21266;SDS011;10791;53.108;18.326;2024-02-26T18:21:27;39.00;;;18.33;;
21266;SDS011;10791;53.108;18.326;2024-02-26T18:26:31;37.00;;;16.87;;
21266;SDS011;10791;53.108;18.326;2024-02-26T18:31:34;44.33;;;19.67;;
21266;SDS011;10791;53.108;18.326;2024-02-26T18:36:41;42.23;;;19.63;;
21266;SDS011;10791;53.108;18.326;2024-02-26T18:41:45;38.97;;;18.43;;
21266;SDS011;10791;53.108;18.326;2024-02-26T18:46:48;34.93;;;18.40;;
21266;SDS011;10791;53.108;18.326;2024-02-26T18:51:51;38.93;;;18.73;;
21266;SDS011;10791;53.108;18.326;2024-02-26T18:56:55;31.63;;;18.00;;
21266;SDS011;10791;53.108;18.326;2024-02-26T19:01:59;41.93;;;20.13;;
21266;SDS011;10791;53.108;18.326;2024-02-26T19:07:03;39.30;;;19.00;;
21266;SDS011;10791;53.108;18.326;2024-02-26T19:12:07;40.83;;;19.03;;
21266;SDS011;10791;53.108;18.326;2024-02-26T19:17:11;37.07;;;17.23;;
21266;SDS011;10791;53.108;18.326;2024-02-26T19:22:16;40.27;;;18.50;;
21266;SDS011;10791;53.108;18.326;2024-02-26T19:27:20;34.57;;;18.23;;
21266;SDS011;10791;53.108;18.326;2024-02-26T19:32:25;33.57;;;17.17;;
21266;SDS011;10791;53.108;18.326;2024-02-26T19:37:32;32.87;;;17.47;;
21266;SDS011;10791;53.108;18.326;2024-02-26T19:42:37;32.27;;;17.57;;
21266;SDS011;10791;53.108;18.326;2024-02-26T19:47:41;31.10;;;17.27;;
21266;SDS011;10791;53.108;18.326;2024-02-26T19:52:45;35.97;;;15.67;;
21266;SDS011;10791;53.108;18.326;2024-02-26T19:57:49;33.40;;;17.10;;
21266;SDS011;10791;53.108;18.326;2024-02-26T20:02:57;38.43;;;17.80;;
21266;SDS011;10791;53.108;18.326;2024-02-26T20:08:02;37.83;;;17.90;;
21266;SDS011;10791;53.108;18.326;2024-02-26T20:13:07;34.10;;;16.40;;
21266;SDS011;10791;53.108;18.326;2024-02-26T20:18:11;30.47;;;16.53;;
21266;SDS011;10791;53.108;18.326;2024-02-26T20:23:15;32.83;;;16.23;;
21266;SDS011;10791;53.108;18.326;2024-02-26T20:28:22;39.10;;;18.03;;
21266;SDS011;10791;53.108;18.326;2024-02-26T20:33:27;33.90;;;17.10;;
21266;SDS011;10791;53.108;18.326;2024-02-26T20:38:30;30.90;;;16.80;;
21266;SDS011;10791;53.108;18.326;2024-02-26T20:43:34;45.00;;;19.77;;
21266;SDS011;10791;53.108;18.326;2024-02-26T20:48:37;37.43;;;17.93;;
21266;SDS011;10791;53.108;18.326;2024-02-26T20:53:41;36.17;;;17.83;;
21266;SDS011;10791;53.108;18.326;2024-02-26T20:58:46;34.90;;;17.00;;
21266;SDS011;10791;53.108;18.326;2024-02-26T21:03:49;29.20;;;15.97;;
21266;SDS011;10791;53.108;18.326;2024-02-26T21:08:53;37.17;;;17.57;;
21266;SDS011;10791;53.108;18.326;2024-02-26T21:13:57;25.37;;;13.90;;
21266;SDS011;10791;53.108;18.326;2024-02-26T21:19:01;30.67;;;13.77;;
21266;SDS011;10791;53.108;18.326;2024-02-26T21:24:06;29.13;;;15.23;;
21266;SDS011;10791;53.108;18.326;2024-02-26T21:29:10;32.77;;;17.10;;
21266;SDS011;10791;53.108;18.326;2024-02-26T21:34:14;32.37;;;16.07;;
21266;SDS011;10791;53.108;18.326;2024-02-26T21:39:17;34.47;;;17.70;;
21266;SDS011;10791;53.108;18.326;2024-02-26T21:44:21;29.17;;;15.43;;
21266;SDS011;10791;53.108;18.326;2024-02-26T21:49:24;32.00;;;14.97;;
21266;SDS011;10791;53.108;18.326;2024-02-26T21:54:31;33.70;;;16.23;;
21266;SDS011;10791;53.108;18.326;2024-02-26T21:59:36;29.70;;;14.83;;
21266;SDS011;10791;53.108;18.326;2024-02-26T22:04:39;34.50;;;16.40;;
21266;SDS011;10791;53.108;18.326;2024-02-26T22:09:43;31.67;;;16.00;;
21266;SDS011;10791;53.108;18.326;2024-02-26T22:14:47;29.27;;;15.27;;
21266;SDS011;10791;53.108;18.326;2024-02-26T22:19:50;31.17;;;15.33;;
21266;SDS011;10791;53.108;18.326;2024-02-26T22:24:53;23.37;;;13.33;;
21266;SDS011;10791;53.108;18.326;2024-02-26T22:29:56;26.97;;;13.10;;
21266;SDS011;10791;53.108;18.326;2024-02-26T22:34:59;33.57;;;16.03;;
21266;SDS011;10791;53.108;18.326;2024-02-26T22:40:02;28.47;;;15.40;;
21266;SDS011;10791;53.108;18.326;2024-02-26T22:45:06;32.20;;;16.17;;
21266;SDS011;10791;53.108;18.326;2024-02-26T22:50:09;29.53;;;15.30;;
21266;SDS011;10791;53.108;18.326;2024-02-26T22:55:12;28.97;;;14.87;;
21266;SDS011;10791;53.108;18.326;2024-02-26T23:00:16;29.00;;;14.43;;
21266;SDS011;10791;53.108;18.326;2024-02-26T23:05:35;32.43;;;16.10;;
21266;SDS011;10791;53.108;18.326;2024-02-26T23:10:38;36.13;;;16.03;;
21266;SDS011;10791;53.108;18.326;2024-02-26T23:15:41;37.53;;;17.03;;
21266;SDS011;10791;53.108;18.326;2024-02-26T23:20:45;27.80;;;15.37;;
21266;SDS011;10791;53.108;18.326;2024-02-26T23:25:48;33.63;;;14.67;;
21266;SDS011;10791;53.108;18.326;2024-02-26T23:30:51;24.20;;;13.30;;
21266;SDS011;10791;53.108;18.326;2024-02-26T23:35:54;25.50;;;12.73;;
21266;SDS011;10791;53.108;18.326;2024-02-26T23:40:57;31.60;;;14.37;;
21266;SDS011;10791;53.108;18.326;2024-02-26T23:45:59;27.73;;;14.50;;
21266;SDS011;10791;53.108;18.326;2024-02-26T23:51:02;30.83;;;15.80;;
21266;SDS011;10791;53.108;18.326;2024-02-26T23:56:06;26.93;;;14.10;;
